Dock, Kentucky
Current Conditions -  °F | °C
As of 6:55 AM on Monday 24 Nov 2014 (Local Time) from KSJS Reporting Station
Scattered Clouds Scattered Clouds  
Wind Chill: 63°   Ceiling: Unl
Heat Index: 63°   Visibility: 10mi
Dew Point: 49°   Wind: 15mph
Humidity: 61%   Direction: 210°SSW
Pressure: 29.52"   Gusts: 29mph
Location:  37.6405°N, 82.8256°W
Report Text: KSJS 241155Z AUTO 21013G25KT 180V240 10SM SCT048 SCT050 17/10 A2952 RMK AO2 T01720097 10181 20169
Loading
Personal Weather Stations






























Interactive Weather Map New forecast layout! Learn more

10-Day Weather Forecast

Advertisements
Track Severe Weather on mobile